Time;durP1;ratioP1;P1;durP2;ratioP2;P2;SDS_P1;SDS_P2;PMS_P1;PMS_P2;Temp;Humidity;BMP_temperature;BMP_pressure;BME280_temperature;BME280_humidity;BME280_pressure;Samples;Min_cycle;Max_cycle;Signal;HPM_P1;HPM_P2
2024/02/08 00:00:08;;;;;;;1.05;0.70;;;;;;;;;;4992069;23;20070;-60
2024/02/08 00:02:35;;;;;;;1.48;0.60;;;;;;;;;;4982195;28;20422;-59
2024/02/08 00:05:01;;;;;;;0.65;0.55;;;;;;;;;;4973160;28;20433;-60
2024/02/08 00:07:27;;;;;;;4.43;1.10;;;;;;;;;;4989557;28;20031;-60
2024/02/08 00:09:56;;;;;;;0.93;0.70;;;;;;;;;;4988997;28;20041;-60
2024/02/08 00:12:22;;;;;;;0.80;0.75;;;;;;;;;;4971823;28;20057;-59
2024/02/08 00:14:49;;;;;;;1.55;0.60;;;;;;;;;;4971602;28;20731;-60
2024/02/08 00:17:16;;;;;;;1.30;0.77;;;;;;;;;;4972727;28;20418;-59
2024/02/08 00:19:42;;;;;;;0.65;0.50;;;;;;;;;;4970542;28;20043;-59
2024/02/08 00:22:08;;;;;;;0.60;0.50;;;;;;;;;;4970253;28;20047;-59
2024/02/08 00:24:36;;;;;;;0.80;0.50;;;;;;;;;;4972207;28;20045;-59
2024/02/08 00:27:03;;;;;;;2.97;0.77;;;;;;;;;;4971951;28;20037;-62
2024/02/08 00:29:30;;;;;;;0.70;0.50;;;;;;;;;;4971625;28;20047;-61
2024/02/08 00:31:56;;;;;;;0.75;0.50;;;;;;;;;;4972001;28;20039;-61
2024/02/08 00:34:22;;;;;;;2.63;0.57;;;;;;;;;;4971071;28;20038;-60
2024/02/08 00:36:50;;;;;;;1.42;0.50;;;;;;;;;;4970500;28;20038;-62
2024/02/08 00:39:17;;;;;;;1.80;0.50;;;;;;;;;;4970013;28;20054;-62
2024/02/08 00:41:50;;;;;;;0.68;0.43;;;;;;;;;;4969436;28;20062;-61
2024/02/08 00:44:17;;;;;;;2.60;0.40;;;;;;;;;;4969386;28;20062;-58
2024/02/08 00:46:43;;;;;;;0.57;0.40;;;;;;;;;;4970392;28;20055;-61
2024/02/08 00:49:10;;;;;;;0.68;0.50;;;;;;;;;;4968134;28;20043;-62
2024/02/08 00:51:36;;;;;;;0.85;0.65;;;;;;;;;;4971521;28;20051;-61
2024/02/08 00:54:02;;;;;;;0.75;0.70;;;;;;;;;;4971860;28;20039;-59
2024/02/08 00:56:28;;;;;;;0.65;0.55;;;;;;;;;;4971519;28;20046;-59
2024/02/08 00:58:54;;;;;;;1.55;0.60;;;;;;;;;;4966136;28;20046;-61
2024/02/08 01:01:20;;;;;;;0.65;0.35;;;;;;;;;;4965392;28;20046;-60
2024/02/08 01:03:46;;;;;;;1.58;0.40;;;;;;;;;;4965825;28;20034;-61
2024/02/08 01:06:12;;;;;;;1.63;1.33;;;;;;;;;;4966445;28;20406;-60
2024/02/08 01:08:39;;;;;;;0.32;0.32;;;;;;;;;;4971890;28;20050;-61
2024/02/08 01:11:05;;;;;;;0.93;0.40;;;;;;;;;;4969797;28;20035;-60
2024/02/08 01:13:32;;;;;;;0.50;0.50;;;;;;;;;;4971012;28;20056;-60
2024/02/08 01:15:58;;;;;;;0.40;0.40;;;;;;;;;;4970527;28;20034;-61
2024/02/08 01:18:25;;;;;;;2.35;0.40;;;;;;;;;;4968692;28;20035;-61
2024/02/08 01:20:51;;;;;;;0.52;0.47;;;;;;;;;;4969541;28;20042;-60
2024/02/08 01:23:18;;;;;;;0.88;0.50;;;;;;;;;;4971872;28;20041;-60
2024/02/08 01:25:46;;;;;;;0.47;0.47;;;;;;;;;;4971002;28;20154;-59
2024/02/08 01:28:15;;;;;;;0.40;0.40;;;;;;;;;;4971109;28;20475;-59
2024/02/08 01:30:41;;;;;;;1.20;0.50;;;;;;;;;;4969114;28;20059;-60
2024/02/08 01:33:12;;;;;;;0.40;0.40;;;;;;;;;;4969680;28;20031;-62
2024/02/08 01:35:39;;;;;;;0.75;0.50;;;;;;;;;;4967904;28;20038;-60
2024/02/08 01:38:08;;;;;;;0.95;0.45;;;;;;;;;;4964685;28;20055;-60
2024/02/08 01:40:35;;;;;;;0.45;0.43;;;;;;;;;;4965727;28;20499;-61
2024/02/08 01:43:01;;;;;;;0.82;0.35;;;;;;;;;;4961337;28;20034;-61
2024/02/08 01:45:37;;;;;;;0.45;0.40;;;;;;;;;;4971235;28;20049;-61
2024/02/08 01:48:10;;;;;;;1.73;0.40;;;;;;;;;;4970153;28;20034;-60
2024/02/08 01:50:46;;;;;;;0.88;0.50;;;;;;;;;;4981714;28;20054;-60
2024/02/08 01:53:18;;;;;;;0.30;0.30;;;;;;;;;;4962005;28;20422;-60
2024/02/08 01:55:49;;;;;;;0.50;0.50;;;;;;;;;;4966545;28;20034;-60
2024/02/08 01:58:16;;;;;;;1.58;0.70;;;;;;;;;;4981173;28;20434;-61
2024/02/08 02:00:48;;;;;;;0.50;0.50;;;;;;;;;;4970557;28;20042;-60
2024/02/08 02:03:16;;;;;;;1.15;0.60;;;;;;;;;;4968912;28;20046;-60
2024/02/08 02:05:46;;;;;;;0.80;0.50;;;;;;;;;;4965055;28;20035;-60
2024/02/08 02:08:22;;;;;;;;;;;;;;;;;;4973226;28;20034;-62
2024/02/08 02:11:08;;;;;;;0.60;0.40;;;;;;;;;;4974177;28;19922;-61
2024/02/08 02:13:37;;;;;;;0.40;0.40;;;;;;;;;;4974104;28;20035;-60
2024/02/08 02:16:03;;;;;;;0.82;0.40;;;;;;;;;;4973002;28;20042;-60
2024/02/08 02:18:31;;;;;;;0.98;0.30;;;;;;;;;;4973833;28;20418;-60
2024/02/08 02:20:57;;;;;;;0.60;0.40;;;;;;;;;;4974244;28;20035;-61
2024/02/08 02:23:24;;;;;;;1.45;0.47;;;;;;;;;;4973574;28;20043;-59
2024/02/08 02:25:54;;;;;;;0.65;0.40;;;;;;;;;;4968789;28;20042;-60
2024/02/08 02:28:21;;;;;;;0.40;0.38;;;;;;;;;;4968107;28;20039;-61
2024/02/08 02:30:48;;;;;;;0.50;0.40;;;;;;;;;;4972131;28;20414;-61
2024/02/08 02:33:16;;;;;;;0.68;0.50;;;;;;;;;;4971661;28;20062;-60
2024/02/08 02:35:48;;;;;;;0.43;0.30;;;;;;;;;;4969964;28;20043;-60
2024/02/08 02:38:18;;;;;;;1.02;0.40;;;;;;;;;;4971530;28;20047;-59
2024/02/08 02:40:46;;;;;;;0.40;0.40;;;;;;;;;;4972471;28;20047;-61
2024/02/08 02:43:13;;;;;;;0.65;0.47;;;;;;;;;;4971001;28;20050;-60
2024/02/08 02:45:40;;;;;;;2.15;0.40;;;;;;;;;;4970538;28;20051;-60
2024/02/08 02:48:07;;;;;;;0.40;0.40;;;;;;;;;;4964389;28;20402;-60
2024/02/08 02:50:34;;;;;;;0.30;0.30;;;;;;;;;;4971256;28;20051;-60
2024/02/08 02:53:00;;;;;;;0.47;0.40;;;;;;;;;;4968754;28;20059;-60
2024/02/08 02:55:27;;;;;;;1.45;0.40;;;;;;;;;;4970471;28;20058;-60
2024/02/08 02:57:57;;;;;;;0.30;0.30;;;;;;;;;;4971316;28;20030;-59
2024/02/08 03:00:37;;;;;;;0.60;0.28;;;;;;;;;;4963087;28;20043;-59
2024/02/08 03:03:07;;;;;;;0.40;0.40;;;;;;;;;;4969076;28;20055;-59
2024/02/08 03:05:35;;;;;;;0.73;0.30;;;;;;;;;;4971737;28;20375;-60
2024/02/08 03:08:05;;;;;;;0.30;0.30;;;;;;;;;;4971777;28;20034;-59
2024/02/08 03:10:37;;;;;;;0.95;0.50;;;;;;;;;;4967548;28;20403;-59
2024/02/08 03:13:04;;;;;;;0.38;0.32;;;;;;;;;;4972317;28;20026;-60
2024/02/08 03:15:30;;;;;;;2.95;0.43;;;;;;;;;;4968795;28;20487;-59
2024/02/08 03:17:56;;;;;;;0.43;0.40;;;;;;;;;;4970754;28;20426;-59
2024/02/08 03:20:29;;;;;;;1.20;0.35;;;;;;;;;;4973813;28;20050;-60
2024/02/08 03:22:56;;;;;;;0.30;0.30;;;;;;;;;;4970712;28;20042;-60
2024/02/08 03:25:22;;;;;;;1.38;0.47;;;;;;;;;;4972724;28;20034;-60
2024/02/08 03:27:52;;;;;;;0.52;0.30;;;;;;;;;;4972837;28;20494;-59
2024/02/08 03:30:19;;;;;;;;;;;;;;;;;;4972763;28;20073;-60
2024/02/08 03:32:52;;;;;;;0.32;0.32;;;;;;;;;;4966695;28;19914;-60
2024/02/08 03:35:27;;;;;;;0.20;0.20;;;;;;;;;;4973646;28;20387;-60
2024/02/08 03:37:54;;;;;;;0.40;0.20;;;;;;;;;;4970092;28;20031;-60
2024/02/08 03:40:21;;;;;;;0.47;0.30;;;;;;;;;;4966445;28;20043;-60
2024/02/08 03:42:50;;;;;;;0.30;0.30;;;;;;;;;;4972257;28;20577;-60
2024/02/08 03:45:23;;;;;;;0.30;0.30;;;;;;;;;;4970518;28;20062;-60
2024/02/08 03:47:50;;;;;;;0.35;0.30;;;;;;;;;;4972138;28;20434;-60
2024/02/08 03:50:16;;;;;;;0.80;0.40;;;;;;;;;;4967056;28;20087;-60
2024/02/08 03:52:43;;;;;;;0.43;0.40;;;;;;;;;;4970692;28;20042;-60
2024/02/08 03:55:09;;;;;;;0.43;0.30;;;;;;;;;;4971474;28;20039;-60
2024/02/08 03:57:38;;;;;;;1.35;0.50;;;;;;;;;;4972731;28;20057;-60
2024/02/08 04:00:07;;;;;;;1.48;0.50;;;;;;;;;;4969347;28;20042;-59
2024/02/08 04:02:43;;;;;;;1.02;0.70;;;;;;;;;;4971332;28;20046;-60
2024/02/08 04:05:19;;;;;;;0.55;0.30;;;;;;;;;;4965445;28;20502;-60
2024/02/08 04:07:56;;;;;;;0.75;0.35;;;;;;;;;;4971278;28;20039;-60
2024/02/08 04:53:30;;;;;;;1.67;0.40;;;;;;;;;;4969662;28;20057;-61
2024/02/08 04:54:54;;;;;;;0.30;0.30;;;;;;;;;;4968702;28;20050;-60
2024/02/08 04:57:20;;;;;;;0.40;0.40;;;;;;;;;;4969480;28;20046;-60
2024/02/08 04:59:46;;;;;;;0.73;0.30;;;;;;;;;;4968731;28;20035;-61
2024/02/08 05:02:13;;;;;;;0.38;0.30;;;;;;;;;;4960410;28;20048;-59
2024/02/08 05:04:40;;;;;;;1.08;0.50;;;;;;;;;;4971296;28;20034;-60
2024/02/08 05:07:07;;;;;;;0.50;0.50;;;;;;;;;;4971511;28;20034;-60
2024/02/08 05:09:33;;;;;;;0.52;0.45;;;;;;;;;;4971191;28;20387;-60
2024/02/08 05:12:05;;;;;;;0.75;0.30;;;;;;;;;;4969455;28;20030;-59
2024/02/08 05:14:35;;;;;;;1.33;0.40;;;;;;;;;;4969729;28;20042;-60
2024/02/08 05:17:01;;;;;;;;;;;;;;;;;;4968719;28;20039;-59
2024/02/08 05:19:27;;;;;;;0.40;0.40;;;;;;;;;;4968081;28;19922;-60
2024/02/08 05:21:54;;;;;;;0.80;0.40;;;;;;;;;;4970305;28;20053;-60
2024/02/08 05:24:20;;;;;;;0.47;0.35;;;;;;;;;;4966077;28;20035;-60
2024/02/08 05:26:46;;;;;;;1.20;0.50;;;;;;;;;;4969628;28;20042;-61
2024/02/08 05:29:19;;;;;;;0.60;0.43;;;;;;;;;;4969217;28;20046;-61
2024/02/08 05:31:47;;;;;;;0.30;0.30;;;;;;;;;;4970947;28;20418;-60
2024/02/08 05:34:15;;;;;;;1.65;0.63;;;;;;;;;;4971708;28;20041;-60
2024/02/08 05:36:43;;;;;;;4.85;1.10;;;;;;;;;;4966635;28;20522;-61
2024/02/08 05:39:10;;;;;;;1.67;0.50;;;;;;;;;;4968886;28;20050;-60
2024/02/08 05:41:37;;;;;;;0.32;0.32;;;;;;;;;;4966966;28;20039;-61
2024/02/08 05:44:07;;;;;;;0.38;0.30;;;;;;;;;;4974835;28;20042;-61
2024/02/08 05:46:39;;;;;;;1.10;0.90;;;;;;;;;;4974482;28;20034;-61
2024/02/08 05:49:14;;;;;;;4.15;1.80;;;;;;;;;;4967087;28;20043;-60
2024/02/08 05:51:46;;;;;;;1.48;0.90;;;;;;;;;;4966132;28;20546;-62
2024/02/08 05:54:31;;;;;;;2.50;1.30;;;;;;;;;;4965882;28;20047;-61
2024/02/08 05:57:03;;;;;;;1.38;0.98;;;;;;;;;;4971382;28;20039;-60
2024/02/08 05:59:31;;;;;;;0.77;0.50;;;;;;;;;;4972701;28;20053;-61
2024/02/08 06:02:22;;;;;;;1.50;0.90;;;;;;;;;;4967606;28;20055;-61
2024/02/08 06:04:59;;;;;;;0.50;0.50;;;;;;;;;;4908344;29;20514;-66
2024/02/08 06:07:29;;;;;;;0.50;0.50;;;;;;;;;;4898392;29;20056;-63
2024/02/08 06:10:07;;;;;;;2.65;1.50;;;;;;;;;;4895949;29;20048;-62
2024/02/08 06:12:42;;;;;;;1.58;0.70;;;;;;;;;;4896013;29;20036;-61
2024/02/08 06:15:21;;;;;;;3.00;1.00;;;;;;;;;;4903032;29;20170;-62
2024/02/08 06:17:51;;;;;;;0.93;0.75;;;;;;;;;;4903410;29;20103;-62
2024/02/08 06:20:17;;;;;;;;;;;;;;;;;;4897897;29;20059;-62
2024/02/08 06:22:43;;;;;;;0.50;0.50;;;;;;;;;;4896287;29;19919;-62
2024/02/08 06:25:26;;;;;;;0.85;0.75;;;;;;;;;;4893709;29;20060;-63
2024/02/08 06:27:57;;;;;;;3.50;0.75;;;;;;;;;;4900733;29;20527;-64
2024/02/08 06:30:26;;;;;;;1.05;0.70;;;;;;;;;;4899393;29;20044;-62
2024/02/08 06:33:24;;;;;;;0.50;0.50;;;;;;;;;;4901774;29;20033;-63
2024/02/08 06:35:56;;;;;;;0.95;0.60;;;;;;;;;;4898256;29;20048;-62
2024/02/08 06:38:51;;;;;;;2.58;1.15;;;;;;;;;;4898560;29;20036;-63
2024/02/08 06:41:52;;;;;;;4.13;1.73;;;;;;;;;;4898963;29;20400;-63
2024/02/08 06:46:56;;;;;;;4.32;1.40;;;;;;;;;;4897298;29;20052;-63
2024/02/08 07:41:55;;;;;;;2.33;0.68;;;;;;;;;;4899155;29;20048;-61
2024/02/08 07:44:23;;;;;;;1.05;0.80;;;;;;;;;;4896843;29;20036;-62
2024/02/08 07:46:55;;;;;;;1.92;0.80;;;;;;;;;;4910481;29;20386;-62
2024/02/08 07:49:41;;;;;;;0.82;0.63;;;;;;;;;;4898772;29;20509;-63
2024/02/08 07:52:19;;;;;;;2.17;1.20;;;;;;;;;;4898363;29;20055;-63
2024/02/08 07:54:47;;;;;;;1.48;0.70;;;;;;;;;;4894068;29;20040;-63
2024/02/08 07:57:13;;;;;;;1.70;0.60;;;;;;;;;;4896097;29;20044;-63
2024/02/08 07:59:42;;;;;;;2.22;0.60;;;;;;;;;;4894607;29;20448;-64
2024/02/08 08:02:12;;;;;;;1.15;0.47;;;;;;;;;;4894234;29;20056;-64
2024/02/08 08:04:41;;;;;;;0.90;0.50;;;;;;;;;;4896364;29;20059;-63
2024/02/08 08:07:09;;;;;;;1.00;0.80;;;;;;;;;;4889096;29;20052;-63
2024/02/08 08:09:39;;;;;;;1.63;0.75;;;;;;;;;;4898773;29;20073;-63
2024/02/08 08:12:05;;;;;;;;;;;;;;;;;;4903856;29;20044;-62
2024/02/08 08:19:41;;;;;;;1.92;0.85;;;;;;;;;;4894877;29;20029;-63
2024/02/08 08:25:59;;;;;;;1.25;0.68;;;;;;;;;;4894863;29;20515;-64
2024/02/08 08:30:27;;;;;;;0.50;0.40;;;;;;;;;;4892082;29;20401;-63
2024/02/08 08:35:49;;;;;;;0.95;0.60;;;;;;;;;;4894916;29;20057;-63
2024/02/08 08:40:48;;;;;;;0.70;0.70;;;;;;;;;;4896507;29;20056;-62
2024/02/08 08:43:25;;;;;;;1.27;0.90;;;;;;;;;;4892397;29;20049;-63
2024/02/08 08:45:59;;;;;;;2.78;1.13;;;;;;;;;;4897650;29;20032;-63
2024/02/08 08:48:33;;;;;;;2.05;0.90;;;;;;;;;;4895008;29;20047;-64
2024/02/08 08:51:10;;;;;;;4.05;1.60;;;;;;;;;;4893569;29;20055;-64
2024/02/08 08:53:44;;;;;;;4.97;1.50;;;;;;;;;;4898874;29;20040;-63
2024/02/08 08:56:11;;;;;;;3.45;1.52;;;;;;;;;;4913723;29;20041;-64
2024/02/08 08:58:41;;;;;;;1.95;0.90;;;;;;;;;;4896321;29;20035;-63
2024/02/08 09:01:18;;;;;;;1.45;0.90;;;;;;;;;;4898369;29;20060;-64
2024/02/08 09:03:45;;;;;;;3.97;1.23;;;;;;;;;;4898053;29;20043;-64
2024/02/08 09:06:14;;;;;;;1.25;0.70;;;;;;;;;;4898436;29;20060;-63
2024/02/08 09:08:54;;;;;;;1.00;0.70;;;;;;;;;;4898625;29;20549;-63
2024/02/08 09:11:24;;;;;;;2.47;0.70;;;;;;;;;;4895527;29;20040;-64
2024/02/08 09:13:52;;;;;;;2.00;0.50;;;;;;;;;;4894993;29;20040;-63
2024/02/08 09:21:35;;;;;;;4.05;1.50;;;;;;;;;;4895327;29;20056;-64
2024/02/08 09:24:04;;;;;;;1.63;0.77;;;;;;;;;;4895150;29;20497;-63
2024/02/08 09:26:52;;;;;;;2.10;0.50;;;;;;;;;;4892219;29;20040;-63
2024/02/08 09:29:24;;;;;;;0.93;0.50;;;;;;;;;;4890315;29;20056;-64
2024/02/08 09:31:56;;;;;;;0.50;0.50;;;;;;;;;;4892173;29;20052;-65
2024/02/08 09:34:37;;;;;;;1.90;0.55;;;;;;;;;;4906189;29;20063;-64
2024/02/08 09:37:06;;;;;;;1.83;1.00;;;;;;;;;;4896076;29;20044;-64
2024/02/08 09:39:58;;;;;;;1.98;0.47;;;;;;;;;;4891620;29;20048;-64
2024/02/08 09:42:26;;;;;;;3.20;0.70;;;;;;;;;;4892240;29;20044;-61
2024/02/08 09:45:24;;;;;;;1.15;0.50;;;;;;;;;;4889993;29;20036;-63
2024/02/08 09:48:11;;;;;;;2.17;0.60;;;;;;;;;;4909171;29;20047;-62
2024/02/08 09:50:47;;;;;;;3.20;0.40;;;;;;;;;;4893764;29;20519;-63
2024/02/08 09:53:19;;;;;;;0.88;0.40;;;;;;;;;;4898066;29;20048;-63
2024/02/08 09:55:55;;;;;;;0.40;0.32;;;;;;;;;;4895241;29;20436;-62
2024/02/08 09:58:39;;;;;;;0.70;0.47;;;;;;;;;;4890828;29;20044;-64
2024/02/08 10:01:22;;;;;;;0.40;0.40;;;;;;;;;;4894361;29;20041;-64
2024/02/08 10:03:49;;;;;;;0.70;0.30;;;;;;;;;;4892431;29;20037;-63
2024/02/08 10:06:38;;;;;;;2.67;1.73;;;;;;;;;;4893092;29;20599;-63
2024/02/08 10:09:33;;;;;;;1.50;0.50;;;;;;;;;;4896997;29;20037;-63
2024/02/08 10:11:58;;;;;;;0.90;0.60;;;;;;;;;;4900380;29;20049;-63
2024/02/08 10:14:32;;;;;;;0.93;0.73;;;;;;;;;;4893464;29;20045;-63
2024/02/08 10:17:24;;;;;;;1.23;0.60;;;;;;;;;;4894726;29;20043;-63
2024/02/08 10:28:21;;;;;;;1.30;0.73;;;;;;;;;;4890162;29;20045;-63
2024/02/08 10:31:06;;;;;;;2.47;0.60;;;;;;;;;;4896711;29;20044;-63
2024/02/08 10:33:37;;;;;;;0.98;0.55;;;;;;;;;;4894606;29;20056;-64
2024/02/08 10:36:10;;;;;;;1.27;0.55;;;;;;;;;;4899081;29;20036;-64
2024/02/08 10:44:05;;;;;;;1.58;0.60;;;;;;;;;;4911995;29;20040;-62
2024/02/08 10:46:32;;;;;;;2.13;1.00;;;;;;;;;;4901954;29;20040;-62
2024/02/08 10:49:00;;;;;;;0.43;0.40;;;;;;;;;;4897858;29;20059;-63
2024/02/08 10:51:28;;;;;;;1.05;0.40;;;;;;;;;;4890819;29;20067;-62
2024/02/08 10:54:14;;;;;;;1.05;0.50;;;;;;;;;;4896884;29;20036;-62
2024/02/08 10:57:06;;;;;;;0.43;0.40;;;;;;;;;;4901627;29;20048;-62
2024/02/08 10:59:48;;;;;;;;;;;;;;;;;;;;;
2024/02/08 11:02:35;;;;;;;1.27;0.50;;;;;;;;;;4915529;29;20044;-64
2024/02/08 11:05:30;;;;;;;1.48;0.85;;;;;;;;;;4896255;29;20060;-63
2024/02/08 11:07:58;;;;;;;1.23;0.63;;;;;;;;;;4899509;29;20043;-62
2024/02/08 11:10:31;;;;;;;2.80;0.75;;;;;;;;;;4903068;29;20041;-62
2024/02/08 11:13:10;;;;;;;0.88;0.70;;;;;;;;;;4895274;29;20579;-62
2024/02/08 11:15:41;;;;;;;1.15;0.60;;;;;;;;;;4897362;29;20436;-62
2024/02/08 11:18:33;;;;;;;1.05;0.60;;;;;;;;;;4897277;29;20045;-63
2024/02/08 11:21:03;;;;;;;0.60;0.60;;;;;;;;;;4909180;29;20041;-63
2024/02/08 11:23:45;;;;;;;0.40;0.35;;;;;;;;;;4894372;29;20089;-62
2024/02/08 11:26:11;;;;;;;1.38;0.60;;;;;;;;;;4896110;29;20055;-62
2024/02/08 11:28:54;;;;;;;1.23;0.77;;;;;;;;;;4894079;29;20048;-63
2024/02/08 11:31:26;;;;;;;3.50;0.70;;;;;;;;;;4893811;29;20036;-63
2024/02/08 11:33:55;;;;;;;2.97;1.02;;;;;;;;;;4880150;29;20045;-64
2024/02/08 11:36:34;;;;;;;3.65;0.50;;;;;;;;;;4893771;29;20053;-63
2024/02/08 11:39:21;;;;;;;3.40;0.55;;;;;;;;;;4896220;29;20029;-63
2024/02/08 11:41:48;;;;;;;3.63;0.43;;;;;;;;;;4895681;29;20056;-63
2024/02/08 11:44:23;;;;;;;2.45;0.52;;;;;;;;;;4896692;29;20052;-64
2024/02/08 11:46:57;;;;;;;3.65;1.98;;;;;;;;;;4898456;29;20044;-64
2024/02/08 11:49:33;;;;;;;5.80;0.70;;;;;;;;;;4898288;29;20413;-63
2024/02/08 11:52:10;;;;;;;4.50;1.00;;;;;;;;;;4894717;29;20390;-62
2024/02/08 11:54:39;;;;;;;3.28;1.08;;;;;;;;;;4895071;29;20052;-63
2024/02/08 11:57:09;;;;;;;5.28;1.05;;;;;;;;;;4900965;29;20489;-62
2024/02/08 11:59:36;;;;;;;6.15;0.77;;;;;;;;;;4897507;29;20417;-63
2024/02/08 12:02:07;;;;;;;9.60;0.90;;;;;;;;;;4896159;29;20119;-63
2024/02/08 12:04:35;;;;;;;5.68;1.08;;;;;;;;;;4898347;29;20536;-63
2024/02/08 12:07:07;;;;;;;9.20;1.27;;;;;;;;;;4901747;29;20060;-63
2024/02/08 12:09:34;;;;;;;11.02;1.67;;;;;;;;;;4894767;29;20053;-63
2024/02/08 12:12:00;;;;;;;7.03;1.10;;;;;;;;;;4901233;29;20048;-63
2024/02/08 12:14:26;;;;;;;6.25;1.20;;;;;;;;;;4895073;29;20060;-64
2024/02/08 12:16:59;;;;;;;5.65;1.08;;;;;;;;;;4895019;29;20067;-63
2024/02/08 12:19:30;;;;;;;7.78;0.90;;;;;;;;;;4895076;29;20044;-63
2024/02/08 12:21:58;;;;;;;5.78;1.60;;;;;;;;;;4896993;29;20528;-63
2024/02/08 12:24:25;;;;;;;7.93;1.15;;;;;;;;;;4894430;29;20424;-64
2024/02/08 12:26:54;;;;;;;8.07;1.50;;;;;;;;;;4896139;29;20047;-63
2024/02/08 12:29:25;;;;;;;7.88;1.70;;;;;;;;;;4892896;29;20507;-63
2024/02/08 12:31:55;;;;;;;9.85;1.60;;;;;;;;;;4895744;29;20039;-63
2024/02/08 12:34:34;;;;;;;9.93;1.42;;;;;;;;;;4897336;29;20053;-63
2024/02/08 12:37:06;;;;;;;15.23;1.50;;;;;;;;;;4895515;29;20173;-63
2024/02/08 12:39:46;;;;;;;4.80;1.13;;;;;;;;;;4896139;29;20056;-63
2024/02/08 12:42:14;;;;;;;7.18;1.00;;;;;;;;;;4894922;29;20412;-63
2024/02/08 12:44:48;;;;;;;8.23;2.00;;;;;;;;;;4898590;29;20048;-63
2024/02/08 12:47:17;;;;;;;12.52;2.13;;;;;;;;;;4898442;29;20060;-64
2024/02/08 12:49:46;;;;;;;9.35;1.20;;;;;;;;;;4890716;29;20045;-63
2024/02/08 12:52:15;;;;;;;;;;;;;;;;;;4889546;29;20052;-63
2024/02/08 12:54:42;;;;;;;5.38;1.10;;;;;;;;;;4899351;29;19915;-63
2024/02/08 12:57:10;;;;;;;9.48;1.27;;;;;;;;;;4896936;29;20053;-64
2024/02/08 12:59:41;;;;;;;7.15;1.77;;;;;;;;;;4896640;29;20044;-64
2024/02/08 13:02:16;;;;;;;8.88;1.13;;;;;;;;;;4906417;29;20040;-64
2024/02/08 13:04:50;;;;;;;9.95;1.90;;;;;;;;;;4899448;29;20409;-63
2024/02/08 13:07:18;;;;;;;12.32;2.65;;;;;;;;;;4899712;29;20048;-63
2024/02/08 13:09:45;;;;;;;11.07;1.70;;;;;;;;;;4892783;29;20040;-63
2024/02/08 13:12:15;;;;;;;7.45;1.10;;;;;;;;;;4896106;29;20051;-64
2024/02/08 13:14:42;;;;;;;;;;;;;;;;;;4895196;29;20049;-63
2024/02/08 13:17:08;;;;;;;16.35;2.28;;;;;;;;;;4894402;29;19915;-64
2024/02/08 13:19:38;;;;;;;12.23;1.85;;;;;;;;;;4885552;29;20555;-64
2024/02/08 13:22:04;;;;;;;13.27;2.15;;;;;;;;;;4893002;29;20044;-64
2024/02/08 13:24:34;;;;;;;16.77;2.10;;;;;;;;;;4895920;29;20423;-64
2024/02/08 13:27:03;;;;;;;;;;;;;;;;;;4889707;29;20044;-66
2024/02/08 13:29:30;;;;;;;18.33;3.00;;;;;;;;;;4892207;29;19919;-65
2024/02/08 13:31:57;;;;;;;15.52;2.28;;;;;;;;;;4906651;29;20412;-65
2024/02/08 13:34:23;;;;;;;18.92;3.17;;;;;;;;;;4893761;29;20052;-63
2024/02/08 13:36:49;;;;;;;20.05;3.08;;;;;;;;;;4910665;29;20499;-64
2024/02/08 13:39:16;;;;;;;24.58;2.63;;;;;;;;;;4897392;29;20041;-64
2024/02/08 13:41:46;;;;;;;8.73;2.50;;;;;;;;;;4874960;29;20040;-64
2024/02/08 13:44:15;;;;;;;15.18;2.92;;;;;;;;;;4896207;29;20060;-63
2024/02/08 13:46:41;;;;;;;15.73;3.25;;;;;;;;;;4907008;29;20413;-64
2024/02/08 13:49:07;;;;;;;14.75;2.67;;;;;;;;;;4902708;29;20036;-64
2024/02/08 13:51:36;;;;;;;18.67;2.20;;;;;;;;;;4892181;29;20059;-64
2024/02/08 13:54:02;;;;;;;13.90;2.50;;;;;;;;;;4894407;29;20044;-64
2024/02/08 13:56:28;;;;;;;11.75;2.50;;;;;;;;;;4894628;29;20488;-64
2024/02/08 13:59:00;;;;;;;18.45;2.45;;;;;;;;;;4893106;29;20040;-64
2024/02/08 14:01:26;;;;;;;14.95;2.97;;;;;;;;;;4883331;29;20059;-66
2024/02/08 14:03:56;;;;;;;21.45;3.15;;;;;;;;;;4901197;29;20035;-66
2024/02/08 14:06:23;;;;;;;16.95;2.78;;;;;;;;;;4906828;29;20039;-66
2024/02/08 14:08:54;;;;;;;19.35;3.50;;;;;;;;;;4905013;29;20056;-66
2024/02/08 14:11:25;;;;;;;16.08;2.38;;;;;;;;;;4896333;29;20041;-66
2024/02/08 14:13:52;;;;;;;10.32;2.45;;;;;;;;;;4897651;29;20059;-69
2024/02/08 14:16:21;;;;;;;12.77;2.40;;;;;;;;;;4897873;29;20396;-69
2024/02/08 14:18:51;;;;;;;9.80;2.00;;;;;;;;;;4895450;29;20047;-68
2024/02/08 14:21:24;;;;;;;19.05;3.50;;;;;;;;;;4894767;29;20043;-69
2024/02/08 14:23:53;;;;;;;16.10;2.40;;;;;;;;;;4912575;29;20047;-69
2024/02/08 14:26:41;;;;;;;13.35;2.50;;;;;;;;;;4897571;29;20044;-69
2024/02/08 14:29:08;;;;;;;23.73;2.25;;;;;;;;;;4897966;29;20055;-69
2024/02/08 14:31:35;;;;;;;16.70;2.78;;;;;;;;;;4897291;29;20040;-68
2024/02/08 14:34:02;;;;;;;22.67;3.45;;;;;;;;;;4898250;29;20072;-69
2024/02/08 14:36:29;;;;;;;14.80;3.20;;;;;;;;;;4896033;29;20051;-69
2024/02/08 14:38:55;;;;;;;20.67;3.47;;;;;;;;;;4914349;29;20428;-69
2024/02/08 14:41:33;;;;;;;28.35;3.03;;;;;;;;;;4900405;29;20060;-68
2024/02/08 14:44:05;;;;;;;13.15;3.15;;;;;;;;;;4900171;29;20392;-64
2024/02/08 14:46:32;;;;;;;20.10;3.38;;;;;;;;;;4897457;29;20045;-65
2024/02/08 14:49:17;;;;;;;17.20;3.47;;;;;;;;;;4889492;29;20067;-65
2024/02/08 14:51:47;;;;;;;15.32;3.15;;;;;;;;;;4899468;29;20495;-64
2024/02/08 14:54:18;;;;;;;19.58;3.60;;;;;;;;;;4896447;29;20036;-65
2024/02/08 14:57:03;;;;;;;17.45;2.47;;;;;;;;;;4895046;29;20040;-64
2024/02/08 14:59:41;;;;;;;22.10;4.22;;;;;;;;;;4896762;29;20052;-64
2024/02/08 15:02:20;;;;;;;20.50;4.00;;;;;;;;;;4898829;29;20049;-65
2024/02/08 15:04:52;;;;;;;21.88;2.70;;;;;;;;;;4898692;29;20040;-64
2024/02/08 15:07:47;;;;;;;22.55;3.10;;;;;;;;;;4906320;29;20052;-63
2024/02/08 15:10:20;;;;;;;16.05;2.72;;;;;;;;;;4910801;29;20513;-63
2024/02/08 15:12:55;;;;;;;31.38;3.78;;;;;;;;;;4897228;29;20060;-65
2024/02/08 15:15:33;;;;;;;17.85;3.70;;;;;;;;;;4888351;29;20055;-64
2024/02/08 15:18:11;;;;;;;22.63;4.13;;;;;;;;;;4891504;29;20044;-62
2024/02/08 15:20:44;;;;;;;19.23;3.05;;;;;;;;;;4894438;29;20037;-66
2024/02/08 15:23:31;;;;;;;20.17;3.65;;;;;;;;;;4913223;29;20056;-64
2024/02/08 15:26:02;;;;;;;26.50;3.50;;;;;;;;;;4888429;29;20077;-66
2024/02/08 15:28:41;;;;;;;20.42;2.88;;;;;;;;;;4900893;29;20040;-64
2024/02/08 15:36:47;;;;;;;24.80;3.95;;;;;;;;;;4898993;29;20509;-63
2024/02/08 15:42:01;;;;;;;20.88;3.75;;;;;;;;;;4895785;29;20056;-66
2024/02/08 15:44:34;;;;;;;20.30;3.70;;;;;;;;;;4901409;29;20043;-65
2024/02/08 15:47:11;;;;;;;26.67;3.10;;;;;;;;;;4895812;29;20043;-64
2024/02/08 15:49:38;;;;;;;20.80;3.00;;;;;;;;;;4895030;29;20051;-66
2024/02/08 15:52:14;;;;;;;17.30;3.85;;;;;;;;;;4913440;29;20402;-63
2024/02/08 15:54:43;;;;;;;22.58;3.22;;;;;;;;;;4904967;29;20027;-63
2024/02/08 15:57:13;;;;;;;13.70;3.45;;;;;;;;;;4896655;29;20416;-63
2024/02/08 15:59:46;;;;;;;16.88;2.97;;;;;;;;;;4894593;29;20040;-63
2024/02/08 16:02:15;;;;;;;17.45;4.13;;;;;;;;;;4896021;29;20435;-64
2024/02/08 16:04:44;;;;;;;14.73;3.03;;;;;;;;;;4896154;29;20032;-62
2024/02/08 16:07:14;;;;;;;20.77;3.03;;;;;;;;;;4903254;29;20060;-63
2024/02/08 16:09:57;;;;;;;19.50;3.40;;;;;;;;;;4898826;29;20045;-63
2024/02/08 16:12:24;;;;;;;18.33;2.78;;;;;;;;;;4895731;29;20404;-62
2024/02/08 16:15:05;;;;;;;26.05;3.30;;;;;;;;;;4895661;29;20045;-62
2024/02/08 16:17:38;;;;;;;18.67;3.40;;;;;;;;;;4892033;29;20044;-66
2024/02/08 16:22:54;;;;;;;22.83;4.47;;;;;;;;;;4878457;29;20048;-63
2024/02/08 16:28:20;;;;;;;18.17;3.35;;;;;;;;;;4889963;29;20044;-62
2024/02/08 16:33:33;;;;;;;19.48;3.50;;;;;;;;;;4896175;29;20037;-62
2024/02/08 16:36:21;;;;;;;19.13;4.13;;;;;;;;;;4910827;29;20501;-62
2024/02/08 16:41:47;;;;;;;16.98;3.33;;;;;;;;;;4898663;29;20040;-63
2024/02/08 16:44:14;;;;;;;14.77;3.13;;;;;;;;;;4896028;29;20056;-62
2024/02/08 16:46:51;;;;;;;21.30;4.88;;;;;;;;;;4889547;29;20051;-62
2024/02/08 16:49:18;;;;;;;24.40;4.10;;;;;;;;;;4890362;29;20048;-63
2024/02/08 16:51:54;;;;;;;21.45;4.40;;;;;;;;;;4899981;29;20535;-62
2024/02/08 16:56:52;;;;;;;16.48;3.15;;;;;;;;;;4898860;29;20068;-63
2024/02/08 16:59:29;;;;;;;26.90;6.63;;;;;;;;;;4900375;29;20111;-63
2024/02/08 17:02:07;;;;;;;20.10;3.95;;;;;;;;;;4890506;29;20040;-63
2024/02/08 17:05:27;;;;;;;13.55;3.13;;;;;;;;;;4894968;29;20432;-64
2024/02/08 17:07:24;;;;;;;15.98;2.90;;;;;;;;;;4900870;29;20048;-64
2024/02/08 17:10:05;;;;;;;14.88;2.97;;;;;;;;;;4900544;29;20040;-64
2024/02/08 17:12:56;;;;;;;18.65;4.95;;;;;;;;;;4898436;29;20036;-63
2024/02/08 17:15:28;;;;;;;16.77;3.10;;;;;;;;;;4894115;29;20048;-63
2024/02/08 17:18:16;;;;;;;19.60;3.72;;;;;;;;;;4893441;29;20048;-63
2024/02/08 17:20:53;;;;;;;19.25;4.07;;;;;;;;;;4892758;29;20417;-63
2024/02/08 17:23:41;;;;;;;20.23;4.28;;;;;;;;;;4894213;29;20033;-63
2024/02/08 17:26:37;;;;;;;19.33;3.33;;;;;;;;;;4892332;29;20079;-62
2024/02/08 17:29:19;;;;;;;16.08;2.90;;;;;;;;;;4895007;29;20047;-62
2024/02/08 17:31:45;;;;;;;15.10;3.17;;;;;;;;;;4883535;29;20045;-61
2024/02/08 17:34:21;;;;;;;19.85;3.05;;;;;;;;;;4894485;29;20509;-61
2024/02/08 17:36:53;;;;;;;21.52;4.30;;;;;;;;;;4894283;29;20051;-61
2024/02/08 17:39:39;;;;;;;20.85;4.82;;;;;;;;;;4899810;29;20036;-62
2024/02/08 17:42:16;;;;;;;23.40;4.05;;;;;;;;;;4897714;29;20074;-62
2024/02/08 17:44:54;;;;;;;19.65;4.63;;;;;;;;;;4893881;29;20412;-62